Shenstone, United Kingdom
Current Conditions -  °F | °C
As of 2:20 PM on Monday 20 Oct 2014 (Local Time) from EGBB Reporting Station
Broken Clouds Broken Clouds  
Wind Chill: 57°   Ceiling: 4900
Heat Index: 57°   Visibility: 6mi
Dew Point: 48°   Wind: 10mph
Humidity: 72%   Direction: 240°WSW
Pressure: 29.91"   Gusts: NA
Location:  52.63°N, 1.83°W
Report Text: EGBB 201320Z 24009KT 210V270 9999 FEW016 BKN049 14/09 Q1013
Loading
Personal Weather Stations






























Interactive Weather Map
Tropical Storm Tracking
New forecast layout! Learn more

10-Day Weather Forecast

Advertisements
Track Severe Weather on mobile